sensor_id;sensor_type;location;lat;lon;timestamp;P1;durP1;ratioP1;P2;durP2;ratioP2
4839;SDS011;2434;48.486;7.964;2023-04-26T00:00:01;3.10;;;2.70;;
4839;SDS011;2434;48.486;7.964;2023-04-26T00:02:34;3.33;;;3.03;;
4839;SDS011;2434;48.486;7.964;2023-04-26T00:05:03;5.50;;;3.20;;
4839;SDS011;2434;48.486;7.964;2023-04-26T00:07:33;3.60;;;2.53;;
4839;SDS011;2434;48.486;7.964;2023-04-26T00:10:03;4.70;;;3.33;;
4839;SDS011;2434;48.486;7.964;2023-04-26T00:12:32;5.57;;;3.00;;
4839;SDS011;2434;48.486;7.964;2023-04-26T00:15:03;3.10;;;2.80;;
4839;SDS011;2434;48.486;7.964;2023-04-26T00:17:32;6.60;;;4.63;;
4839;SDS011;2434;48.486;7.964;2023-04-26T00:20:01;3.07;;;2.73;;
4839;SDS011;2434;48.486;7.964;2023-04-26T00:22:30;2.90;;;2.40;;
4839;SDS011;2434;48.486;7.964;2023-04-26T00:24:58;5.33;;;3.53;;
4839;SDS011;2434;48.486;7.964;2023-04-26T00:27:26;4.70;;;3.67;;
4839;SDS011;2434;48.486;7.964;2023-04-26T00:29:54;3.97;;;3.33;;
4839;SDS011;2434;48.486;7.964;2023-04-26T00:32:24;5.00;;;3.70;;
4839;SDS011;2434;48.486;7.964;2023-04-26T00:34:52;3.90;;;3.40;;
4839;SDS011;2434;48.486;7.964;2023-04-26T00:37:20;3.67;;;3.07;;
4839;SDS011;2434;48.486;7.964;2023-04-26T00:39:48;5.10;;;3.20;;
4839;SDS011;2434;48.486;7.964;2023-04-26T00:42:17;4.07;;;3.17;;
4839;SDS011;2434;48.486;7.964;2023-04-26T00:44:46;5.90;;;3.23;;
4839;SDS011;2434;48.486;7.964;2023-04-26T00:47:15;4.23;;;3.80;;
4839;SDS011;2434;48.486;7.964;2023-04-26T00:49:45;5.40;;;3.63;;
4839;SDS011;2434;48.486;7.964;2023-04-26T00:52:13;8.70;;;3.80;;
4839;SDS011;2434;48.486;7.964;2023-04-26T00:54:42;5.50;;;4.17;;
4839;SDS011;2434;48.486;7.964;2023-04-26T00:57:10;5.00;;;4.17;;
4839;SDS011;2434;48.486;7.964;2023-04-26T00:59:39;6.10;;;4.70;;
4839;SDS011;2434;48.486;7.964;2023-04-26T01:02:07;6.90;;;6.00;;
4839;SDS011;2434;48.486;7.964;2023-04-26T01:04:36;7.50;;;5.50;;
4839;SDS011;2434;48.486;7.964;2023-04-26T01:07:08;8.47;;;4.63;;
4839;SDS011;2434;48.486;7.964;2023-04-26T01:09:37;8.27;;;6.13;;
4839;SDS011;2434;48.486;7.964;2023-04-26T01:12:05;9.07;;;6.40;;
4839;SDS011;2434;48.486;7.964;2023-04-26T01:14:36;7.10;;;5.80;;
4839;SDS011;2434;48.486;7.964;2023-04-26T01:17:06;16.23;;;6.63;;
4839;SDS011;2434;48.486;7.964;2023-04-26T01:19:34;11.63;;;6.17;;
4839;SDS011;2434;48.486;7.964;2023-04-26T01:22:03;9.77;;;6.97;;
4839;SDS011;2434;48.486;7.964;2023-04-26T01:24:33;8.23;;;6.37;;
4839;SDS011;2434;48.486;7.964;2023-04-26T01:27:02;7.97;;;6.00;;
4839;SDS011;2434;48.486;7.964;2023-04-26T01:29:30;7.57;;;5.87;;
4839;SDS011;2434;48.486;7.964;2023-04-26T01:31:59;8.97;;;5.90;;
4839;SDS011;2434;48.486;7.964;2023-04-26T01:34:27;8.77;;;6.20;;
4839;SDS011;2434;48.486;7.964;2023-04-26T01:36:56;10.53;;;6.37;;
4839;SDS011;2434;48.486;7.964;2023-04-26T01:39:26;12.50;;;6.40;;
4839;SDS011;2434;48.486;7.964;2023-04-26T01:41:57;8.90;;;6.50;;
4839;SDS011;2434;48.486;7.964;2023-04-26T01:44:25;10.73;;;6.90;;
4839;SDS011;2434;48.486;7.964;2023-04-26T01:46:53;7.83;;;5.90;;
4839;SDS011;2434;48.486;7.964;2023-04-26T01:49:23;10.30;;;6.43;;
4839;SDS011;2434;48.486;7.964;2023-04-26T01:51:53;8.93;;;5.80;;
4839;SDS011;2434;48.486;7.964;2023-04-26T01:54:23;8.23;;;5.80;;
4839;SDS011;2434;48.486;7.964;2023-04-26T01:56:51;9.37;;;5.97;;
4839;SDS011;2434;48.486;7.964;2023-04-26T01:59:21;7.67;;;5.87;;
4839;SDS011;2434;48.486;7.964;2023-04-26T02:01:49;9.60;;;6.40;;
4839;SDS011;2434;48.486;7.964;2023-04-26T02:04:17;7.13;;;5.60;;
4839;SDS011;2434;48.486;7.964;2023-04-26T02:06:45;6.47;;;5.70;;
4839;SDS011;2434;48.486;7.964;2023-04-26T02:09:15;13.10;;;6.90;;
4839;SDS011;2434;48.486;7.964;2023-04-26T02:11:43;7.03;;;5.70;;
4839;SDS011;2434;48.486;7.964;2023-04-26T02:14:11;11.40;;;6.70;;
4839;SDS011;2434;48.486;7.964;2023-04-26T02:16:42;10.87;;;7.40;;
4839;SDS011;2434;48.486;7.964;2023-04-26T02:19:11;8.60;;;6.10;;
4839;SDS011;2434;48.486;7.964;2023-04-26T02:21:53;7.20;;;5.90;;
4839;SDS011;2434;48.486;7.964;2023-04-26T02:24:22;10.83;;;7.50;;
4839;SDS011;2434;48.486;7.964;2023-04-26T02:26:51;8.80;;;6.93;;
4839;SDS011;2434;48.486;7.964;2023-04-26T02:29:20;12.30;;;7.70;;
4839;SDS011;2434;48.486;7.964;2023-04-26T02:32:09;12.30;;;7.17;;
4839;SDS011;2434;48.486;7.964;2023-04-26T02:34:38;13.10;;;7.90;;
4839;SDS011;2434;48.486;7.964;2023-04-26T02:37:07;12.50;;;8.00;;
4839;SDS011;2434;48.486;7.964;2023-04-26T02:39:36;10.73;;;8.13;;
4839;SDS011;2434;48.486;7.964;2023-04-26T02:42:07;10.23;;;7.80;;
4839;SDS011;2434;48.486;7.964;2023-04-26T02:44:35;10.33;;;8.50;;
4839;SDS011;2434;48.486;7.964;2023-04-26T02:47:05;14.57;;;9.07;;
4839;SDS011;2434;48.486;7.964;2023-04-26T02:49:34;14.50;;;9.50;;
4839;SDS011;2434;48.486;7.964;2023-04-26T02:52:03;9.60;;;8.30;;
4839;SDS011;2434;48.486;7.964;2023-04-26T02:54:31;13.03;;;9.53;;
4839;SDS011;2434;48.486;7.964;2023-04-26T02:56:59;13.90;;;8.07;;
4839;SDS011;2434;48.486;7.964;2023-04-26T02:59:28;12.40;;;7.90;;
4839;SDS011;2434;48.486;7.964;2023-04-26T03:01:56;10.70;;;7.57;;
4839;SDS011;2434;48.486;7.964;2023-04-26T03:04:24;10.10;;;8.30;;
4839;SDS011;2434;48.486;7.964;2023-04-26T03:06:54;13.30;;;9.87;;
4839;SDS011;2434;48.486;7.964;2023-04-26T03:09:22;12.53;;;8.90;;
4839;SDS011;2434;48.486;7.964;2023-04-26T03:11:51;12.43;;;9.10;;
4839;SDS011;2434;48.486;7.964;2023-04-26T03:14:20;16.00;;;9.60;;
4839;SDS011;2434;48.486;7.964;2023-04-26T03:16:48;12.23;;;8.43;;
4839;SDS011;2434;48.486;7.964;2023-04-26T03:19:16;14.43;;;8.03;;
4839;SDS011;2434;48.486;7.964;2023-04-26T03:21:45;9.70;;;8.20;;
4839;SDS011;2434;48.486;7.964;2023-04-26T03:24:15;9.63;;;7.73;;
4839;SDS011;2434;48.486;7.964;2023-04-26T03:26:44;11.63;;;8.13;;
4839;SDS011;2434;48.486;7.964;2023-04-26T03:29:13;11.87;;;7.90;;
4839;SDS011;2434;48.486;7.964;2023-04-26T03:31:42;9.53;;;7.50;;
4839;SDS011;2434;48.486;7.964;2023-04-26T03:34:10;12.00;;;7.53;;
4839;SDS011;2434;48.486;7.964;2023-04-26T03:36:39;15.43;;;8.87;;
4839;SDS011;2434;48.486;7.964;2023-04-26T03:39:07;11.93;;;8.80;;
4839;SDS011;2434;48.486;7.964;2023-04-26T03:41:37;12.40;;;8.80;;
4839;SDS011;2434;48.486;7.964;2023-04-26T03:44:08;12.47;;;8.00;;
4839;SDS011;2434;48.486;7.964;2023-04-26T03:46:38;14.97;;;7.70;;
4839;SDS011;2434;48.486;7.964;2023-04-26T03:49:06;13.13;;;8.40;;
4839;SDS011;2434;48.486;7.964;2023-04-26T03:51:34;12.60;;;8.10;;
4839;SDS011;2434;48.486;7.964;2023-04-26T03:54:03;12.17;;;8.10;;
4839;SDS011;2434;48.486;7.964;2023-04-26T03:56:31;11.90;;;8.13;;
4839;SDS011;2434;48.486;7.964;2023-04-26T03:59:01;12.73;;;7.80;;
4839;SDS011;2434;48.486;7.964;2023-04-26T04:01:30;8.33;;;6.60;;
4839;SDS011;2434;48.486;7.964;2023-04-26T04:03:58;9.77;;;7.90;;
4839;SDS011;2434;48.486;7.964;2023-04-26T04:06:28;11.97;;;8.87;;
4839;SDS011;2434;48.486;7.964;2023-04-26T04:08:56;9.57;;;7.53;;
4839;SDS011;2434;48.486;7.964;2023-04-26T04:11:24;14.83;;;9.00;;
4839;SDS011;2434;48.486;7.964;2023-04-26T04:13:52;12.63;;;9.13;;
4839;SDS011;2434;48.486;7.964;2023-04-26T04:16:22;13.60;;;9.23;;
4839;SDS011;2434;48.486;7.964;2023-04-26T04:18:50;13.20;;;9.33;;
4839;SDS011;2434;48.486;7.964;2023-04-26T04:21:19;11.80;;;9.33;;
4839;SDS011;2434;48.486;7.964;2023-04-26T04:23:48;12.23;;;9.60;;
4839;SDS011;2434;48.486;7.964;2023-04-26T04:26:16;17.90;;;11.60;;
4839;SDS011;2434;48.486;7.964;2023-04-26T04:28:44;13.10;;;10.50;;
4839;SDS011;2434;48.486;7.964;2023-04-26T04:31:13;21.87;;;12.33;;
4839;SDS011;2434;48.486;7.964;2023-04-26T04:33:44;16.53;;;12.27;;
4839;SDS011;2434;48.486;7.964;2023-04-26T04:36:12;23.60;;;15.17;;
4839;SDS011;2434;48.486;7.964;2023-04-26T04:38:43;28.30;;;14.03;;
4839;SDS011;2434;48.486;7.964;2023-04-26T04:41:14;21.97;;;13.53;;
4839;SDS011;2434;48.486;7.964;2023-04-26T04:43:42;20.67;;;13.63;;
4839;SDS011;2434;48.486;7.964;2023-04-26T04:46:11;24.10;;;16.07;;
4839;SDS011;2434;48.486;7.964;2023-04-26T04:48:40;20.53;;;12.00;;
4839;SDS011;2434;48.486;7.964;2023-04-26T04:51:11;26.03;;;17.00;;
4839;SDS011;2434;48.486;7.964;2023-04-26T04:53:39;33.13;;;20.50;;
4839;SDS011;2434;48.486;7.964;2023-04-26T04:56:08;27.83;;;17.60;;
4839;SDS011;2434;48.486;7.964;2023-04-26T04:58:36;14.00;;;11.10;;
4839;SDS011;2434;48.486;7.964;2023-04-26T05:01:04;10.43;;;8.60;;
4839;SDS011;2434;48.486;7.964;2023-04-26T05:03:44;12.93;;;9.13;;
4839;SDS011;2434;48.486;7.964;2023-04-26T05:06:14;10.97;;;8.00;;
4839;SDS011;2434;48.486;7.964;2023-04-26T05:08:43;10.30;;;8.80;;
4839;SDS011;2434;48.486;7.964;2023-04-26T05:11:11;13.23;;;8.83;;
4839;SDS011;2434;48.486;7.964;2023-04-26T05:13:40;11.53;;;8.37;;
4839;SDS011;2434;48.486;7.964;2023-04-26T05:16:10;11.03;;;8.07;;
4839;SDS011;2434;48.486;7.964;2023-04-26T05:18:39;14.93;;;8.67;;
4839;SDS011;2434;48.486;7.964;2023-04-26T05:21:07;9.90;;;7.87;;
4839;SDS011;2434;48.486;7.964;2023-04-26T05:23:37;11.20;;;8.20;;
4839;SDS011;2434;48.486;7.964;2023-04-26T05:26:06;10.63;;;8.47;;
4839;SDS011;2434;48.486;7.964;2023-04-26T05:28:55;11.00;;;8.20;;
4839;SDS011;2434;48.486;7.964;2023-04-26T05:31:44;12.53;;;8.00;;
4839;SDS011;2434;48.486;7.964;2023-04-26T05:34:31;12.00;;;7.40;;
4839;SDS011;2434;48.486;7.964;2023-04-26T05:36:59;11.17;;;8.30;;
4839;SDS011;2434;48.486;7.964;2023-04-26T05:39:29;10.83;;;7.80;;
4839;SDS011;2434;48.486;7.964;2023-04-26T05:41:58;10.80;;;8.27;;
4839;SDS011;2434;48.486;7.964;2023-04-26T05:44:27;15.10;;;7.90;;
4839;SDS011;2434;48.486;7.964;2023-04-26T05:46:55;10.83;;;8.17;;
4839;SDS011;2434;48.486;7.964;2023-04-26T05:49:25;10.60;;;7.83;;
4839;SDS011;2434;48.486;7.964;2023-04-26T05:51:53;12.43;;;9.47;;
4839;SDS011;2434;48.486;7.964;2023-04-26T05:54:21;13.10;;;9.20;;
4839;SDS011;2434;48.486;7.964;2023-04-26T05:56:52;11.87;;;8.97;;
4839;SDS011;2434;48.486;7.964;2023-04-26T05:59:24;12.60;;;9.03;;
4839;SDS011;2434;48.486;7.964;2023-04-26T06:01:53;10.40;;;7.77;;
4839;SDS011;2434;48.486;7.964;2023-04-26T06:04:21;13.77;;;8.57;;
4839;SDS011;2434;48.486;7.964;2023-04-26T06:07:01;9.97;;;7.80;;
4839;SDS011;2434;48.486;7.964;2023-04-26T06:09:30;11.93;;;7.70;;
4839;SDS011;2434;48.486;7.964;2023-04-26T06:11:59;13.70;;;8.37;;
4839;SDS011;2434;48.486;7.964;2023-04-26T06:14:32;15.03;;;9.00;;
4839;SDS011;2434;48.486;7.964;2023-04-26T06:17:05;11.67;;;8.10;;
4839;SDS011;2434;48.486;7.964;2023-04-26T06:19:33;12.50;;;9.23;;
4839;SDS011;2434;48.486;7.964;2023-04-26T06:22:01;14.23;;;8.27;;
4839;SDS011;2434;48.486;7.964;2023-04-26T06:24:30;12.67;;;8.80;;
4839;SDS011;2434;48.486;7.964;2023-04-26T06:26:59;14.60;;;10.20;;
4839;SDS011;2434;48.486;7.964;2023-04-26T06:29:30;17.30;;;9.73;;
4839;SDS011;2434;48.486;7.964;2023-04-26T06:31:59;15.30;;;9.47;;
4839;SDS011;2434;48.486;7.964;2023-04-26T06:34:28;16.70;;;9.47;;
4839;SDS011;2434;48.486;7.964;2023-04-26T06:36:57;13.17;;;9.10;;
4839;SDS011;2434;48.486;7.964;2023-04-26T06:39:26;16.17;;;10.40;;
4839;SDS011;2434;48.486;7.964;2023-04-26T06:41:55;16.57;;;10.60;;
4839;SDS011;2434;48.486;7.964;2023-04-26T06:44:28;14.57;;;10.23;;
4839;SDS011;2434;48.486;7.964;2023-04-26T06:47:01;22.10;;;11.03;;
4839;SDS011;2434;48.486;7.964;2023-04-26T06:49:30;16.27;;;11.23;;
4839;SDS011;2434;48.486;7.964;2023-04-26T06:51:58;15.67;;;11.93;;
4839;SDS011;2434;48.486;7.964;2023-04-26T06:54:27;21.50;;;12.90;;
4839;SDS011;2434;48.486;7.964;2023-04-26T06:56:56;20.70;;;13.50;;
4839;SDS011;2434;48.486;7.964;2023-04-26T06:59:26;18.40;;;12.17;;
4839;SDS011;2434;48.486;7.964;2023-04-26T07:01:56;20.07;;;13.17;;
4839;SDS011;2434;48.486;7.964;2023-04-26T07:04:24;17.00;;;12.60;;
4839;SDS011;2434;48.486;7.964;2023-04-26T07:06:53;21.73;;;12.17;;
4839;SDS011;2434;48.486;7.964;2023-04-26T07:09:22;31.97;;;13.47;;
4839;SDS011;2434;48.486;7.964;2023-04-26T07:11:50;17.70;;;12.07;;
4839;SDS011;2434;48.486;7.964;2023-04-26T07:14:18;17.30;;;13.00;;
4839;SDS011;2434;48.486;7.964;2023-04-26T07:16:48;19.70;;;13.67;;
4839;SDS011;2434;48.486;7.964;2023-04-26T07:19:16;18.13;;;14.50;;
4839;SDS011;2434;48.486;7.964;2023-04-26T07:21:45;18.60;;;15.20;;
4839;SDS011;2434;48.486;7.964;2023-04-26T07:24:13;17.03;;;13.70;;
4839;SDS011;2434;48.486;7.964;2023-04-26T07:26:41;18.10;;;13.80;;
4839;SDS011;2434;48.486;7.964;2023-04-26T07:29:09;21.20;;;14.13;;
4839;SDS011;2434;48.486;7.964;2023-04-26T07:31:38;20.40;;;15.67;;
4839;SDS011;2434;48.486;7.964;2023-04-26T07:34:08;23.57;;;17.33;;
4839;SDS011;2434;48.486;7.964;2023-04-26T07:36:36;20.57;;;17.20;;
4839;SDS011;2434;48.486;7.964;2023-04-26T07:39:04;23.33;;;15.00;;
4839;SDS011;2434;48.486;7.964;2023-04-26T07:41:35;22.27;;;17.37;;
4839;SDS011;2434;48.486;7.964;2023-04-26T07:44:03;20.30;;;16.43;;
4839;SDS011;2434;48.486;7.964;2023-04-26T07:46:31;23.23;;;17.63;;
4839;SDS011;2434;48.486;7.964;2023-04-26T07:49:00;29.30;;;19.00;;
4839;SDS011;2434;48.486;7.964;2023-04-26T07:51:30;25.30;;;17.60;;
4839;SDS011;2434;48.486;7.964;2023-04-26T07:53:59;21.27;;;16.80;;
4839;SDS011;2434;48.486;7.964;2023-04-26T07:56:27;23.90;;;17.90;;
4839;SDS011;2434;48.486;7.964;2023-04-26T07:58:56;20.90;;;15.60;;
4839;SDS011;2434;48.486;7.964;2023-04-26T08:01:24;20.33;;;15.67;;
4839;SDS011;2434;48.486;7.964;2023-04-26T08:03:52;22.03;;;14.37;;
4839;SDS011;2434;48.486;7.964;2023-04-26T08:06:21;18.40;;;15.03;;
4839;SDS011;2434;48.486;7.964;2023-04-26T08:08:51;22.20;;;16.97;;
4839;SDS011;2434;48.486;7.964;2023-04-26T08:11:19;20.47;;;14.93;;
4839;SDS011;2434;48.486;7.964;2023-04-26T08:13:48;23.60;;;16.43;;
4839;SDS011;2434;48.486;7.964;2023-04-26T08:16:17;26.20;;;16.67;;
4839;SDS011;2434;48.486;7.964;2023-04-26T08:18:45;20.47;;;16.03;;
4839;SDS011;2434;48.486;7.964;2023-04-26T08:21:14;20.27;;;16.27;;
4839;SDS011;2434;48.486;7.964;2023-04-26T08:23:42;29.70;;;17.90;;
4839;SDS011;2434;48.486;7.964;2023-04-26T08:26:12;22.03;;;16.90;;
4839;SDS011;2434;48.486;7.964;2023-04-26T08:28:40;21.23;;;13.93;;
4839;SDS011;2434;48.486;7.964;2023-04-26T08:31:08;19.63;;;14.07;;
4839;SDS011;2434;48.486;7.964;2023-04-26T08:33:36;24.90;;;13.23;;
4839;SDS011;2434;48.486;7.964;2023-04-26T08:36:05;27.33;;;15.63;;
4839;SDS011;2434;48.486;7.964;2023-04-26T08:38:33;22.00;;;13.37;;
4839;SDS011;2434;48.486;7.964;2023-04-26T08:41:02;16.03;;;12.47;;
4839;SDS011;2434;48.486;7.964;2023-04-26T08:43:32;21.13;;;13.47;;
4839;SDS011;2434;48.486;7.964;2023-04-26T08:46:05;17.63;;;12.60;;
4839;SDS011;2434;48.486;7.964;2023-04-26T08:48:36;17.87;;;13.53;;
4839;SDS011;2434;48.486;7.964;2023-04-26T08:51:04;17.60;;;13.13;;
4839;SDS011;2434;48.486;7.964;2023-04-26T08:53:34;17.20;;;12.87;;
4839;SDS011;2434;48.486;7.964;2023-04-26T08:56:05;16.90;;;12.70;;
4839;SDS011;2434;48.486;7.964;2023-04-26T08:58:38;19.77;;;13.23;;
4839;SDS011;2434;48.486;7.964;2023-04-26T09:01:06;18.40;;;12.53;;
4839;SDS011;2434;48.486;7.964;2023-04-26T09:03:35;17.23;;;11.70;;
4839;SDS011;2434;48.486;7.964;2023-04-26T09:06:05;17.43;;;11.70;;
4839;SDS011;2434;48.486;7.964;2023-04-26T09:08:34;14.40;;;11.60;;
4839;SDS011;2434;48.486;7.964;2023-04-26T09:11:04;17.30;;;11.97;;
4839;SDS011;2434;48.486;7.964;2023-04-26T09:13:33;18.17;;;11.17;;
4839;SDS011;2434;48.486;7.964;2023-04-26T09:16:02;18.60;;;10.87;;
4839;SDS011;2434;48.486;7.964;2023-04-26T09:18:31;14.13;;;10.60;;
4839;SDS011;2434;48.486;7.964;2023-04-26T09:21:03;16.30;;;10.57;;
4839;SDS011;2434;48.486;7.964;2023-04-26T09:23:33;14.47;;;11.30;;
4839;SDS011;2434;48.486;7.964;2023-04-26T09:26:14;11.63;;;10.10;;
4839;SDS011;2434;48.486;7.964;2023-04-26T09:28:43;16.20;;;10.20;;
4839;SDS011;2434;48.486;7.964;2023-04-26T09:31:21;14.57;;;10.30;;
4839;SDS011;2434;48.486;7.964;2023-04-26T09:34:04;11.87;;;9.90;;
4839;SDS011;2434;48.486;7.964;2023-04-26T09:36:44;13.37;;;9.70;;
4839;SDS011;2434;48.486;7.964;2023-04-26T09:39:13;16.60;;;10.27;;
4839;SDS011;2434;48.486;7.964;2023-04-26T09:41:42;13.50;;;10.30;;
4839;SDS011;2434;48.486;7.964;2023-04-26T09:44:20;13.23;;;10.10;;
4839;SDS011;2434;48.486;7.964;2023-04-26T09:47:00;15.03;;;9.83;;
4839;SDS011;2434;48.486;7.964;2023-04-26T09:49:30;12.63;;;10.20;;
4839;SDS011;2434;48.486;7.964;2023-04-26T09:52:00;12.70;;;10.00;;
4839;SDS011;2434;48.486;7.964;2023-04-26T09:54:39;12.97;;;10.40;;
4839;SDS011;2434;48.486;7.964;2023-04-26T09:57:09;12.43;;;9.60;;
4839;SDS011;2434;48.486;7.964;2023-04-26T09:59:38;9.43;;;8.00;;
4839;SDS011;2434;48.486;7.964;2023-04-26T10:02:12;14.60;;;9.00;;
4839;SDS011;2434;48.486;7.964;2023-04-26T10:04:43;12.07;;;9.40;;
4839;SDS011;2434;48.486;7.964;2023-04-26T10:07:14;10.17;;;7.40;;
4839;SDS011;2434;48.486;7.964;2023-04-26T10:09:44;10.20;;;7.77;;
4839;SDS011;2434;48.486;7.964;2023-04-26T10:12:13;11.43;;;7.13;;
4839;SDS011;2434;48.486;7.964;2023-04-26T10:14:44;8.37;;;7.10;;
4839;SDS011;2434;48.486;7.964;2023-04-26T10:17:14;9.77;;;6.70;;
4839;SDS011;2434;48.486;7.964;2023-04-26T10:19:45;11.27;;;8.20;;
4839;SDS011;2434;48.486;7.964;2023-04-26T10:22:18;7.53;;;6.73;;
4839;SDS011;2434;48.486;7.964;2023-04-26T10:24:50;8.80;;;6.60;;
4839;SDS011;2434;48.486;7.964;2023-04-26T10:30:16;10.93;;;6.63;;
4839;SDS011;2434;48.486;7.964;2023-04-26T10:41:47;6.23;;;5.50;;
4839;SDS011;2434;48.486;7.964;2023-04-26T10:47:08;6.87;;;4.80;;
4839;SDS011;2434;48.486;7.964;2023-04-26T10:49:48;7.20;;;5.70;;
4839;SDS011;2434;48.486;7.964;2023-04-26T10:52:17;7.70;;;4.97;;
4839;SDS011;2434;48.486;7.964;2023-04-26T10:54:50;9.60;;;5.07;;
4839;SDS011;2434;48.486;7.964;2023-04-26T10:57:20;9.53;;;5.60;;
4839;SDS011;2434;48.486;7.964;2023-04-26T11:02:44;8.90;;;5.50;;
4839;SDS011;2434;48.486;7.964;2023-04-26T11:08:04;6.83;;;4.80;;
4839;SDS011;2434;48.486;7.964;2023-04-26T11:10:39;5.03;;;4.53;;
4839;SDS011;2434;48.486;7.964;2023-04-26T11:13:08;5.73;;;4.03;;
4839;SDS011;2434;48.486;7.964;2023-04-26T11:15:36;8.63;;;5.33;;
4839;SDS011;2434;48.486;7.964;2023-04-26T11:18:04;10.00;;;4.90;;
4839;SDS011;2434;48.486;7.964;2023-04-26T11:20:33;9.77;;;5.60;;
4839;SDS011;2434;48.486;7.964;2023-04-26T11:23:01;6.67;;;4.60;;
4839;SDS011;2434;48.486;7.964;2023-04-26T11:25:30;6.53;;;5.20;;
4839;SDS011;2434;48.486;7.964;2023-04-26T11:28:00;6.80;;;5.80;;
4839;SDS011;2434;48.486;7.964;2023-04-26T11:30:29;7.27;;;5.47;;
4839;SDS011;2434;48.486;7.964;2023-04-26T11:32:58;10.00;;;4.83;;
4839;SDS011;2434;48.486;7.964;2023-04-26T11:35:26;7.10;;;5.37;;
4839;SDS011;2434;48.486;7.964;2023-04-26T11:37:59;5.93;;;5.27;;
4839;SDS011;2434;48.486;7.964;2023-04-26T11:40:28;6.87;;;5.10;;
4839;SDS011;2434;48.486;7.964;2023-04-26T11:42:59;12.10;;;5.90;;
4839;SDS011;2434;48.486;7.964;2023-04-26T11:45:30;10.27;;;5.23;;
4839;SDS011;2434;48.486;7.964;2023-04-26T11:47:59;9.50;;;5.53;;
4839;SDS011;2434;48.486;7.964;2023-04-26T11:50:29;8.00;;;4.80;;
4839;SDS011;2434;48.486;7.964;2023-04-26T11:52:58;5.80;;;4.73;;
4839;SDS011;2434;48.486;7.964;2023-04-26T11:55:31;6.70;;;5.07;;
4839;SDS011;2434;48.486;7.964;2023-04-26T11:58:08;10.40;;;5.53;;
4839;SDS011;2434;48.486;7.964;2023-04-26T12:00:54;5.87;;;4.73;;
4839;SDS011;2434;48.486;7.964;2023-04-26T12:03:27;8.87;;;5.50;;
4839;SDS011;2434;48.486;7.964;2023-04-26T12:05:57;6.93;;;5.00;;
4839;SDS011;2434;48.486;7.964;2023-04-26T12:08:25;8.73;;;5.50;;
4839;SDS011;2434;48.486;7.964;2023-04-26T12:10:57;7.40;;;4.30;;
4839;SDS011;2434;48.486;7.964;2023-04-26T12:13:28;5.90;;;3.60;;
4839;SDS011;2434;48.486;7.964;2023-04-26T12:15:57;9.90;;;3.93;;
4839;SDS011;2434;48.486;7.964;2023-04-26T12:18:28;4.57;;;2.60;;
4839;SDS011;2434;48.486;7.964;2023-04-26T12:20:58;5.07;;;3.60;;
4839;SDS011;2434;48.486;7.964;2023-04-26T12:23:34;6.90;;;3.70;;
4839;SDS011;2434;48.486;7.964;2023-04-26T12:26:05;3.60;;;2.70;;
4839;SDS011;2434;48.486;7.964;2023-04-26T12:28:37;6.60;;;3.40;;
4839;SDS011;2434;48.486;7.964;2023-04-26T12:31:06;11.00;;;3.60;;
4839;SDS011;2434;48.486;7.964;2023-04-26T12:33:35;4.57;;;3.13;;
4839;SDS011;2434;48.486;7.964;2023-04-26T12:36:07;6.83;;;3.60;;
4839;SDS011;2434;48.486;7.964;2023-04-26T12:38:36;4.50;;;2.97;;
4839;SDS011;2434;48.486;7.964;2023-04-26T12:41:05;7.33;;;3.17;;
4839;SDS011;2434;48.486;7.964;2023-04-26T12:43:33;6.37;;;3.50;;
4839;SDS011;2434;48.486;7.964;2023-04-26T12:46:03;5.73;;;3.30;;
4839;SDS011;2434;48.486;7.964;2023-04-26T12:48:31;8.60;;;4.40;;
4839;SDS011;2434;48.486;7.964;2023-04-26T12:51:00;4.73;;;3.10;;
4839;SDS011;2434;48.486;7.964;2023-04-26T12:53:28;4.37;;;3.60;;
4839;SDS011;2434;48.486;7.964;2023-04-26T12:55:56;8.93;;;3.23;;
4839;SDS011;2434;48.486;7.964;2023-04-26T12:58:25;5.90;;;4.03;;
4839;SDS011;2434;48.486;7.964;2023-04-26T13:00:54;6.30;;;3.40;;
4839;SDS011;2434;48.486;7.964;2023-04-26T13:03:24;8.30;;;4.20;;
4839;SDS011;2434;48.486;7.964;2023-04-26T13:05:53;7.93;;;3.10;;
4839;SDS011;2434;48.486;7.964;2023-04-26T13:08:21;6.30;;;4.03;;
4839;SDS011;2434;48.486;7.964;2023-04-26T13:10:49;7.93;;;4.20;;
4839;SDS011;2434;48.486;7.964;2023-04-26T13:13:17;4.67;;;3.60;;
4839;SDS011;2434;48.486;7.964;2023-04-26T13:15:57;4.47;;;3.43;;
4839;SDS011;2434;48.486;7.964;2023-04-26T13:18:27;5.40;;;3.30;;
4839;SDS011;2434;48.486;7.964;2023-04-26T13:20:55;7.63;;;3.33;;
4839;SDS011;2434;48.486;7.964;2023-04-26T13:23:23;5.00;;;2.87;;
4839;SDS011;2434;48.486;7.964;2023-04-26T13:25:52;5.00;;;2.90;;
4839;SDS011;2434;48.486;7.964;2023-04-26T13:28:20;5.40;;;3.40;;
4839;SDS011;2434;48.486;7.964;2023-04-26T13:30:48;5.87;;;3.03;;
4839;SDS011;2434;48.486;7.964;2023-04-26T13:33:17;3.57;;;3.10;;
4839;SDS011;2434;48.486;7.964;2023-04-26T13:35:48;4.47;;;3.00;;
4839;SDS011;2434;48.486;7.964;2023-04-26T13:38:16;6.00;;;3.10;;
4839;SDS011;2434;48.486;7.964;2023-04-26T13:40:45;3.80;;;2.90;;
4839;SDS011;2434;48.486;7.964;2023-04-26T13:43:13;6.70;;;3.10;;
4839;SDS011;2434;48.486;7.964;2023-04-26T13:45:41;5.27;;;3.37;;
4839;SDS011;2434;48.486;7.964;2023-04-26T13:48:10;5.20;;;2.57;;
4839;SDS011;2434;48.486;7.964;2023-04-26T13:50:38;4.67;;;3.17;;
4839;SDS011;2434;48.486;7.964;2023-04-26T13:53:08;6.70;;;3.20;;
4839;SDS011;2434;48.486;7.964;2023-04-26T13:55:36;3.83;;;3.00;;
4839;SDS011;2434;48.486;7.964;2023-04-26T13:58:05;5.13;;;2.77;;
4839;SDS011;2434;48.486;7.964;2023-04-26T14:00:33;4.83;;;2.87;;
4839;SDS011;2434;48.486;7.964;2023-04-26T14:03:01;2.90;;;2.43;;
4839;SDS011;2434;48.486;7.964;2023-04-26T14:05:30;4.90;;;2.30;;
4839;SDS011;2434;48.486;7.964;2023-04-26T14:07:58;6.37;;;3.03;;
4839;SDS011;2434;48.486;7.964;2023-04-26T14:10:29;3.97;;;2.50;;
4839;SDS011;2434;48.486;7.964;2023-04-26T14:12:57;5.43;;;3.20;;
4839;SDS011;2434;48.486;7.964;2023-04-26T14:15:25;9.33;;;2.80;;
4839;SDS011;2434;48.486;7.964;2023-04-26T14:17:54;6.47;;;3.10;;
4839;SDS011;2434;48.486;7.964;2023-04-26T14:20:22;6.10;;;2.93;;
4839;SDS011;2434;48.486;7.964;2023-04-26T14:22:50;4.53;;;2.60;;
4839;SDS011;2434;48.486;7.964;2023-04-26T14:25:19;4.23;;;3.13;;
4839;SDS011;2434;48.486;7.964;2023-04-26T14:27:48;9.37;;;3.30;;
4839;SDS011;2434;48.486;7.964;2023-04-26T14:30:19;5.57;;;2.77;;
4839;SDS011;2434;48.486;7.964;2023-04-26T14:32:47;4.40;;;3.00;;
4839;SDS011;2434;48.486;7.964;2023-04-26T14:35:15;3.53;;;2.70;;
4839;SDS011;2434;48.486;7.964;2023-04-26T14:37:43;3.63;;;2.87;;
4839;SDS011;2434;48.486;7.964;2023-04-26T14:40:12;7.30;;;3.07;;
4839;SDS011;2434;48.486;7.964;2023-04-26T14:42:41;5.70;;;3.27;;
4839;SDS011;2434;48.486;7.964;2023-04-26T14:45:12;4.27;;;2.70;;
4839;SDS011;2434;48.486;7.964;2023-04-26T14:47:41;6.73;;;3.80;;
4839;SDS011;2434;48.486;7.964;2023-04-26T14:50:09;4.63;;;2.60;;
4839;SDS011;2434;48.486;7.964;2023-04-26T14:52:39;6.20;;;3.23;;
4839;SDS011;2434;48.486;7.964;2023-04-26T14:55:08;5.43;;;3.40;;
4839;SDS011;2434;48.486;7.964;2023-04-26T14:57:38;6.03;;;3.23;;
4839;SDS011;2434;48.486;7.964;2023-04-26T15:00:07;6.40;;;3.37;;
4839;SDS011;2434;48.486;7.964;2023-04-26T15:02:42;5.93;;;3.13;;
4839;SDS011;2434;48.486;7.964;2023-04-26T15:05:11;4.37;;;3.33;;
4839;SDS011;2434;48.486;7.964;2023-04-26T15:07:40;8.93;;;3.67;;
4839;SDS011;2434;48.486;7.964;2023-04-26T15:10:08;5.73;;;3.50;;
4839;SDS011;2434;48.486;7.964;2023-04-26T15:12:37;5.93;;;3.07;;
4839;SDS011;2434;48.486;7.964;2023-04-26T15:15:06;9.10;;;3.30;;
4839;SDS011;2434;48.486;7.964;2023-04-26T15:17:35;8.50;;;3.50;;
4839;SDS011;2434;48.486;7.964;2023-04-26T15:20:06;8.40;;;4.10;;
4839;SDS011;2434;48.486;7.964;2023-04-26T15:22:38;5.37;;;2.93;;
4839;SDS011;2434;48.486;7.964;2023-04-26T15:25:06;6.47;;;2.90;;
4839;SDS011;2434;48.486;7.964;2023-04-26T15:27:36;4.40;;;3.10;;
4839;SDS011;2434;48.486;7.964;2023-04-26T15:30:05;4.30;;;3.20;;
4839;SDS011;2434;48.486;7.964;2023-04-26T15:32:34;7.87;;;3.70;;
4839;SDS011;2434;48.486;7.964;2023-04-26T15:35:05;6.73;;;2.97;;
4839;SDS011;2434;48.486;7.964;2023-04-26T15:37:35;5.90;;;3.40;;
4839;SDS011;2434;48.486;7.964;2023-04-26T15:40:04;3.70;;;3.07;;